Time;durP1;ratioP1;P1;durP2;ratioP2;P2;SDS_P1;SDS_P2;PMS_P1;PMS_P2;Temp;Humidity;BMP_temperature;BMP_pressure;BME280_temperature;BME280_humidity;BME280_pressure;Samples;Min_cycle;Max_cycle;Signal;HPM_P1;HPM_P2
2022/04/27 00:00:11;;;;;;;5.47;3.70;;;;;;;8.94;100.00;96444.56;5069482;28;20210;-84
2022/04/27 00:02:40;;;;;;;4.30;3.90;;;;;;;8.85;100.00;96443.19;5036326;28;20207;-85
2022/04/27 00:05:08;;;;;;;5.43;3.27;;;;;;;8.85;100.00;96444.00;5047593;28;20213;-85
2022/04/27 00:07:35;;;;;;;6.03;4.00;;;;;;;8.82;100.00;96444.47;5041364;28;20202;-84
2022/04/27 00:10:03;;;;;;;6.43;3.80;;;;;;;8.81;100.00;96434.72;5044442;28;20217;-84
2022/04/27 00:12:30;;;;;;;4.37;3.50;;;;;;;8.85;100.00;96444.00;5047948;28;20202;-84
2022/04/27 00:14:58;;;;;;;5.07;4.00;;;;;;;8.82;100.00;96433.69;5062592;28;20304;-85
2022/04/27 00:17:26;;;;;;;4.57;3.90;;;;;;;8.68;100.00;96434.78;5045145;28;20201;-84
2022/04/27 00:19:53;;;;;;;4.63;3.70;;;;;;;8.54;100.00;96439.44;5041763;28;20205;-84
2022/04/27 00:22:20;;;;;;;4.40;3.87;;;;;;;8.44;100.00;96441.75;5042489;28;20237;-84
2022/04/27 00:24:47;;;;;;;3.83;3.43;;;;;;;8.48;100.00;96447.56;5045038;28;20221;-84
2022/04/27 00:27:14;;;;;;;4.23;3.83;;;;;;;8.47;100.00;96435.13;5056188;28;20200;-85
2022/04/27 00:29:41;;;;;;;4.83;3.70;;;;;;;8.50;100.00;96429.34;5033319;28;20202;-84
2022/04/27 00:32:10;;;;;;;4.40;4.00;;;;;;;8.54;100.00;96436.75;5047839;28;20252;-83
2022/04/27 00:34:37;;;;;;;5.10;3.77;;;;;;;8.53;100.00;96429.72;5061071;28;20205;-83
2022/04/27 00:37:04;;;;;;;6.13;4.40;;;;;;;8.59;100.00;96431.53;5046138;28;20206;-84
2022/04/27 00:39:31;;;;;;;4.63;3.93;;;;;;;8.62;100.00;96438.34;5036624;28;20289;-84
2022/04/27 00:42:02;;;;;;;3.63;3.33;;;;;;;8.68;100.00;96442.88;5035412;28;20229;-83
2022/04/27 00:44:29;;;;;;;6.17;3.60;;;;;;;8.68;100.00;96434.78;5059913;28;20285;-84
2022/04/27 00:46:57;;;;;;;3.97;3.53;;;;;;;8.67;100.00;96436.69;5057403;28;20232;-84
2022/04/27 00:49:26;;;;;;;5.00;3.90;;;;;;;8.65;100.00;96448.72;5035937;28;20264;-85
2022/04/27 00:51:53;;;;;;;3.90;3.57;;;;;;;8.63;100.00;96442.72;5062486;28;20231;-84
2022/04/27 00:54:22;;;;;;;5.20;3.53;;;;;;;8.66;100.00;96434.22;5053646;28;20208;-85
2022/04/27 00:56:50;;;;;;;4.33;3.57;;;;;;;8.69;100.00;96444.53;5055704;28;20209;-85
2022/04/27 00:59:18;;;;;;;3.93;3.53;;;;;;;8.68;100.00;96448.25;5050802;28;20214;-85
2022/04/27 01:01:46;;;;;;;3.60;3.30;;;;;;;8.68;100.00;96442.88;5065532;28;20272;-84
2022/04/27 01:04:13;;;;;;;5.27;3.80;;;;;;;8.79;100.00;96447.56;5044055;28;20209;-84
2022/04/27 01:06:42;;;;;;;3.77;3.40;;;;;;;8.79;100.00;96444.88;5042776;28;20216;-84
2022/04/27 01:09:10;;;;;;;4.77;3.60;;;;;;;8.82;100.00;96449.03;5052986;28;20246;-84
2022/04/27 01:11:37;;;;;;;3.87;3.47;;;;;;;8.77;100.00;96446.97;5049915;28;20217;-84
2022/04/27 01:14:05;;;;;;;4.30;3.43;;;;;;;8.73;100.00;96440.38;5043337;28;20197;-83
2022/04/27 01:16:32;;;;;;;3.73;3.30;;;;;;;8.69;100.00;96447.22;5058896;28;20237;-84
2022/04/27 01:18:59;;;;;;;4.83;3.43;;;;;;;8.69;100.00;96442.66;5047138;28;20293;-84
2022/04/27 01:21:28;;;;;;;3.63;3.30;;;;;;;8.65;100.00;96436.06;5058000;28;20197;-84
2022/04/27 01:24:06;;;;;;;4.03;3.13;;;;;;;8.68;100.00;96442.88;5048593;28;20221;-84
2022/04/27 01:26:35;;;;;;;3.47;3.17;;;;;;;8.73;100.00;96451.97;5042540;28;20260;-84
2022/04/27 01:29:02;;;;;;;4.23;3.37;;;;;;;8.68;100.00;96443.69;5050459;28;20565;-83
2022/04/27 01:31:30;;;;;;;4.23;3.10;;;;;;;8.68;100.00;96446.38;5049048;28;20232;-84
2022/04/27 01:33:57;;;;;;;4.57;3.40;;;;;;;8.61;100.00;96444.78;5040409;28;20280;-84
2022/04/27 01:36:26;;;;;;;5.17;3.60;;;;;;;8.55;100.00;96442.97;5053011;28;20205;-84
2022/04/27 01:38:55;;;;;;;3.97;3.13;;;;;;;8.49;100.00;96438.44;5047060;28;20206;-84
2022/04/27 01:41:22;;;;;;;4.23;3.13;;;;;;;8.50;100.00;96440.09;5036093;28;20265;-85
2022/04/27 01:43:49;;;;;;;6.33;3.40;;;;;;;8.55;100.00;96446.47;5061949;28;20225;-84
2022/04/27 01:46:16;;;;;;;4.30;3.27;;;;;;;8.59;100.00;96449.56;5068628;28;20201;-84
2022/04/27 01:48:43;;;;;;;3.50;3.20;;;;;;;8.53;100.00;96431.56;5038112;28;20262;-84
2022/04/27 01:51:11;;;;;;;4.20;3.40;;;;;;;8.57;100.00;96441.72;5044285;28;20244;-85
2022/04/27 01:56:24;;;;;;;3.97;3.20;;;;;;;8.64;100.00;96439.81;5048443;28;20221;-83
2022/04/27 01:58:54;;;;;;;4.90;3.00;;;;;;;8.61;100.00;96448.28;5045485;28;20189;-85
2022/04/27 02:01:22;;;;;;;4.47;3.57;;;;;;;8.62;100.00;96449.94;5037935;28;20210;-84
2022/04/27 02:03:51;;;;;;;4.57;3.10;;;;;;;8.60;100.00;96449.34;5048074;28;20197;-85
2022/04/27 02:06:20;;;;;;;3.40;3.10;;;;;;;8.54;100.00;96450.22;5059565;28;20214;-85
2022/04/27 02:08:48;;;;;;;5.07;3.23;;;;;;;8.51;100.00;96456.00;5045715;28;20225;-84
2022/04/27 02:11:24;;;;;;;4.57;3.20;;;;;;;8.55;100.00;96454.56;5057038;28;20309;-84
2022/04/27 02:14:06;;;;;;;4.20;2.90;;;;;;;8.57;100.00;96455.16;5049359;28;20288;-84
2022/04/27 02:16:35;;;;;;;5.47;3.30;;;;;;;8.55;100.00;96453.72;5045552;28;20215;-84
2022/04/27 02:19:04;;;;;;;4.87;3.57;;;;;;;8.59;100.00;96458.44;5045643;28;20217;-84
2022/04/27 02:21:31;;;;;;;4.37;3.53;;;;;;;8.53;100.00;96462.00;5065179;28;20201;-84
2022/04/27 02:24:01;;;;;;;3.30;2.90;;;;;;;8.55;100.00;96467.19;5044846;28;20248;-85
2022/04/27 02:26:28;;;;;;;3.17;2.87;;;;;;;8.52;100.00;96468.44;5046793;28;20242;-84
2022/04/27 02:28:57;;;;;;;5.73;3.10;;;;;;;8.42;100.00;96462.66;5058675;28;20206;-84
2022/04/27 02:31:25;;;;;;;3.37;3.07;;;;;;;8.42;100.00;96461.88;5046678;28;20220;-85
2022/04/27 02:33:52;;;;;;;3.50;3.20;;;;;;;8.41;100.00;96460.22;5024470;28;20245;-84
2022/04/27 02:36:19;;;;;;;3.47;3.17;;;;;;;8.35;100.00;96461.88;5028121;28;20218;-84
2022/04/27 02:38:47;;;;;;;4.90;3.27;;;;;;;8.34;100.00;96462.91;5034542;28;20226;-83
2022/04/27 02:41:16;;;;;;;6.27;3.80;;;;;;;8.37;100.00;96456.28;5026782;28;20314;-85
2022/04/27 02:43:43;;;;;;;4.07;3.30;;;;;;;8.37;100.00;96467.88;5020761;28;20210;-85
2022/04/27 02:46:14;;;;;;;4.73;3.63;;;;;;;8.38;100.00;96469.53;5031530;28;20213;-85
2022/04/27 02:51:48;;;;;;;5.17;3.83;;;;;;;8.39;100.00;96470.34;5021188;28;20223;-84
2022/04/27 02:51:48;;;;;;;4.20;3.47;;;;;;;8.44;100.00;96473.22;5029212;28;20228;-84
2022/04/27 02:54:18;;;;;;;4.60;3.07;;;;;;;8.44;100.00;96471.34;5033278;28;20257;-84
2022/04/27 02:56:46;;;;;;;5.90;3.37;;;;;;;8.41;100.00;96476.38;5026472;28;20291;-84
2022/04/27 02:59:14;;;;;;;5.70;3.50;;;;;;;8.39;100.00;96481.94;5021527;28;20219;-83
2022/04/27 03:01:45;;;;;;;4.60;3.43;;;;;;;8.39;100.00;96471.19;5026931;28;20290;-84
2022/04/27 03:04:12;;;;;;;4.77;3.77;;;;;;;8.45;100.00;96483.78;5029948;28;20276;-84
2022/04/27 03:06:39;;;;;;;4.17;3.50;;;;;;;8.49;100.00;96481.50;5032106;28;20254;-83
2022/04/27 03:09:08;;;;;;;5.90;4.10;;;;;;;8.52;100.00;96476.50;5028887;28;20205;-84
2022/04/27 03:11:36;;;;;;;8.17;4.60;;;;;;;8.52;100.00;96481.06;5026466;28;20222;-84
2022/04/27 03:14:18;;;;;;;11.43;7.27;;;;;;;8.50;100.00;96478.59;5022840;28;20211;-84
2022/04/27 03:16:45;;;;;;;13.20;6.63;;;;;;;8.46;100.00;96487.31;5027013;28;20202;-83
2022/04/27 03:19:12;;;;;;;11.40;6.70;;;;;;;8.39;100.00;96494.56;5017963;28;20317;-83
2022/04/27 03:21:39;;;;;;;8.40;5.57;;;;;;;8.30;100.00;96488.56;5017128;28;20289;-83
2022/04/27 03:24:07;;;;;;;9.67;6.53;;;;;;;8.25;100.00;96496.47;5019480;28;20346;-84
2022/04/27 03:26:34;;;;;;;12.17;6.83;;;;;;;8.18;100.00;96483.00;5028290;28;20256;-84
2022/04/27 03:29:03;;;;;;;9.13;6.30;;;;;;;8.18;100.00;96490.25;5026401;28;20202;-83
2022/04/27 03:31:33;;;;;;;9.63;5.63;;;;;;;8.16;100.00;96495.03;5013621;28;20238;-84
2022/04/27 03:34:01;;;;;;;8.70;4.63;;;;;;;8.10;100.00;96488.63;5039222;28;20237;-83
2022/04/27 03:36:31;;;;;;;6.70;4.93;;;;;;;8.11;100.00;96490.28;5044234;28;20209;-84
2022/04/27 03:38:59;;;;;;;6.63;4.77;;;;;;;8.04;100.00;96484.09;5057949;28;20229;-84
2022/04/27 03:41:28;;;;;;;7.93;4.73;;;;;;;8.01;100.00;96489.06;5049587;28;20206;-84
2022/04/27 03:43:57;;;;;;;11.03;5.10;;;;;;;8.05;100.00;96501.06;5050303;28;20202;-84
2022/04/27 03:46:24;;;;;;;7.77;5.30;;;;;;;8.08;100.00;96495.28;5037548;28;20253;-84
2022/04/27 03:48:53;;;;;;;8.60;5.33;;;;;;;8.09;100.00;96488.84;5036448;28;20293;-84
2022/04/27 03:51:20;;;;;;;6.17;4.53;;;;;;;8.17;100.00;96494.81;5052401;28;20237;-84
2022/04/27 03:53:49;;;;;;;7.97;4.60;;;;;;;8.19;100.00;96497.28;5059507;28;20279;-84
2022/04/27 03:56:16;;;;;;;9.07;4.80;;;;;;;8.14;100.00;96492.56;5047313;28;20205;-84
2022/04/27 03:58:44;;;;;;;7.50;4.83;;;;;;;8.02;100.00;96490.72;5036576;28;20279;-83
2022/04/27 04:01:11;;;;;;;5.20;4.70;;;;;;;8.06;100.00;96495.47;5041964;28;20206;-83
2022/04/27 04:03:38;;;;;;;5.37;3.87;;;;;;;8.10;100.00;96503.94;5040422;28;20263;-84
2022/04/27 04:06:06;;;;;;;6.00;4.97;;;;;;;8.02;100.00;96488.84;5054980;28;20205;-83
2022/04/27 04:08:40;;;;;;;4.50;4.10;;;;;;;7.97;100.00;96494.06;5057344;28;20257;-84
2022/04/27 04:11:10;;;;;;;5.30;4.80;;;;;;;7.95;100.00;96494.25;5045074;28;20205;-84
2022/04/27 04:14:04;;;;;;;5.00;4.20;;;;;;;7.99;100.00;96511.59;5051216;28;20262;-83
2022/04/27 04:16:51;;;;;;;6.63;4.40;;;;;;;8.02;100.00;96509.53;5058522;28;20274;-83
2022/04/27 04:19:48;;;;;;;8.13;5.20;;;;;;;8.06;100.00;96510.78;5047213;28;20256;-84
2022/04/27 04:22:46;;;;;;;7.23;5.50;;;;;;;8.04;100.00;96511.00;5048190;28;20206;-84
2022/04/27 04:28:34;;;;;;;5.80;4.13;;;;;;;7.85;100.00;96519.91;5048563;28;20213;-84
2022/04/27 04:31:04;;;;;;;7.27;4.40;;;;;;;7.87;100.00;96525.91;5054539;28;20212;-83
2022/04/27 04:33:31;;;;;;;5.97;4.07;;;;;;;7.80;100.00;96519.72;5049174;28;20237;-84
2022/04/27 04:35:59;;;;;;;6.13;4.33;;;;;;;7.76;100.00;96515.78;5061479;28;20296;-84
2022/04/27 04:38:29;;;;;;;5.53;4.13;;;;;;;7.73;100.00;96518.91;5044672;28;20208;-83
2022/04/27 04:41:00;;;;;;;5.77;4.70;;;;;;;7.68;100.00;96527.56;5056441;28;20227;-82
2022/04/27 04:43:38;;;;;;;9.17;5.00;;;;;;;7.68;100.00;96516.84;5045168;28;20256;-83
2022/04/27 04:46:05;;;;;;;6.80;4.90;;;;;;;7.63;100.00;96519.31;5046485;28;20225;-83
2022/04/27 04:48:44;;;;;;;5.70;4.60;;;;;;;7.66;100.00;96524.25;5035500;28;20212;-82
2022/04/27 04:51:45;;;;;;;5.80;4.33;;;;;;;7.65;100.00;96516.44;5028352;28;20233;-84
2022/04/27 04:54:32;;;;;;;9.60;5.57;;;;;;;7.65;100.00;96525.31;5058173;28;20216;-83
2022/04/27 04:57:14;;;;;;;11.37;4.80;;;;;;;7.66;100.00;96528.81;5058469;28;20429;-83
2022/04/27 04:59:47;;;;;;;15.23;5.33;;;;;;;7.63;100.00;96529.25;5061635;28;20268;-83
2022/04/27 05:02:33;;;;;;;5.40;4.23;;;;;;;7.65;100.00;96527.19;5059509;28;20294;-83
2022/04/27 05:05:18;;;;;;;6.43;4.70;;;;;;;7.65;100.00;96527.19;5065920;28;20212;-83
2022/04/27 05:08:00;;;;;;;7.00;4.73;;;;;;;7.66;100.00;96526.94;5057753;28;20206;-82
2022/04/27 05:11:01;;;;;;;5.53;4.77;;;;;;;7.73;100.00;96532.34;5036869;28;20206;-83
2022/04/27 05:13:51;;;;;;;7.80;4.90;;;;;;;7.75;100.00;96535.63;5063309;28;20342;-83
2022/04/27 05:16:36;;;;;;;5.60;4.47;;;;;;;7.71;100.00;96531.72;5052559;28;20210;-83
2022/04/27 05:19:32;;;;;;;5.60;4.77;;;;;;;7.75;100.00;96541.84;5012735;28;20285;-83
2022/04/27 05:22:22;;;;;;;6.33;4.20;;;;;;;7.63;100.00;96532.75;5054307;28;20238;-83
2022/04/27 05:25:02;;;;;;;5.53;4.37;;;;;;;7.54;100.00;96542.88;5044245;28;20264;-82
2022/04/27 05:27:50;;;;;;;5.83;4.80;;;;;;;7.55;100.00;96541.03;5060008;28;20304;-84
2022/04/27 05:33:24;;;;;;;4.23;3.80;;;;;;;7.60;100.00;96551.97;5047312;28;20234;-82
2022/04/27 05:36:11;;;;;;;7.20;4.53;;;;;;;7.61;100.00;96542.88;5039015;28;20232;-83
2022/04/27 05:38:46;;;;;;;4.77;4.13;;;;;;;7.65;100.00;96549.50;5024106;28;20209;-83
2022/04/27 05:41:34;;;;;;;8.33;4.30;;;;;;;7.65;100.00;96552.19;5017270;28;20209;-83
2022/04/27 05:44:24;;;;;;;10.10;4.50;;;;;;;7.59;100.00;96551.16;5014717;28;20202;-83
2022/04/27 05:47:11;;;;;;;5.80;4.97;;;;;;;7.56;100.00;96554.28;5038135;28;20322;-83
2022/04/27 05:50:08;;;;;;;5.40;4.43;;;;;;;7.56;100.00;96554.28;5029899;28;20205;-83
2022/04/27 05:53:08;;;;;;;4.73;4.27;;;;;;;7.57;100.00;96555.09;5013667;28;20233;-83
2022/04/27 05:55:46;;;;;;;5.83;4.07;;;;;;;7.58;100.00;96560.25;5025421;28;20656;-83
2022/04/27 05:58:31;;;;;;;6.57;4.73;;;;;;;7.61;100.00;96559.00;5038745;28;20215;-83
2022/04/27 06:01:33;;;;;;;7.10;4.30;;;;;;;7.64;100.00;96560.47;5017137;28;20206;-83
2022/04/27 06:04:07;;;;;;;6.70;4.83;;;;;;;7.69;100.00;96568.72;5046242;28;20210;-82
2022/04/27 06:06:40;;;;;;;5.10;4.27;;;;;;;7.57;100.00;96569.34;5031134;28;20202;-83
2022/04/27 06:09:10;;;;;;;7.20;5.30;;;;;;;7.48;100.00;96565.22;5029509;28;20207;-83
2022/04/27 06:11:52;;;;;;;5.73;5.13;;;;;;;7.43;100.00;96569.53;5029745;28;20290;-83
2022/04/27 06:14:38;;;;;;;8.10;6.10;;;;;;;7.41;100.00;96564.34;5035402;28;20225;-83
2022/04/27 06:17:11;;;;;;;8.43;6.07;;;;;;;7.52;100.00;96571.00;5023982;28;20213;-82
2022/04/27 06:19:38;;;;;;;6.07;5.03;;;;;;;7.64;100.00;96568.53;5020035;28;20239;-83
2022/04/27 06:22:11;;;;;;;8.53;6.90;;;;;;;7.70;100.00;96568.53;5025928;28;20210;-83
2022/04/27 06:24:39;;;;;;;7.70;6.50;;;;;;;7.68;100.00;96557.16;5044907;28;20257;-83
2022/04/27 06:27:24;;;;;;;7.83;5.70;;;;;;;7.68;100.00;96556.31;5030035;28;20246;-83
2022/04/27 06:29:51;;;;;;;5.60;5.00;;;;;;;7.66;100.00;96556.53;5013897;28;20195;-83
2022/04/27 06:32:20;;;;;;;8.77;5.20;;;;;;;7.68;100.00;96553.63;5017616;28;20292;-83
2022/04/27 06:34:49;;;;;;;11.13;4.67;;;;;;;7.71;100.00;96553.22;5050653;28;20202;-83
2022/04/27 06:37:16;;;;;;;5.70;4.80;;;;;;;7.74;100.00;96552.81;5046862;28;20205;-83
2022/04/27 06:39:45;;;;;;;11.13;5.07;;;;;;;7.71;100.00;96542.47;5056082;28;20225;-83
2022/04/27 06:42:12;;;;;;;7.23;5.63;;;;;;;7.77;100.00;96552.38;5055235;28;20205;-83
2022/04/27 06:44:40;;;;;;;8.27;6.70;;;;;;;7.77;100.00;96545.16;5063032;28;20202;-83
2022/04/27 06:47:27;;;;;;;10.67;5.60;;;;;;;7.86;100.00;96556.53;5057389;28;20208;-83
2022/04/27 06:50:13;;;;;;;6.47;4.77;;;;;;;7.94;100.00;96557.13;5063302;28;20220;-83
2022/04/27 06:53:00;;;;;;;5.53;4.37;;;;;;;7.99;100.00;96556.53;5059450;28;20209;-83
2022/04/27 06:55:47;;;;;;;8.00;4.73;;;;;;;7.99;100.00;96560.00;5064052;28;20231;-84
2022/04/27 06:58:50;;;;;;;6.73;4.77;;;;;;;7.94;100.00;96553.63;4966634;28;20201;-83
2022/04/27 07:01:27;;;;;;;7.30;4.67;;;;;;;7.99;100.00;96562.69;5033562;28;20198;-83
2022/04/27 07:03:56;;;;;;;9.77;7.40;;;;;;;7.96;100.00;96559.63;5052609;28;20206;-83
2022/04/27 07:06:24;;;;;;;9.17;7.47;;;;;;;7.94;100.00;96554.44;5058440;28;20280;-83
2022/04/27 07:08:51;;;;;;;6.87;5.57;;;;;;;7.92;100.00;96553.81;5048937;28;20213;-83
2022/04/27 07:11:18;;;;;;;8.27;5.90;;;;;;;7.90;100.00;96547.00;5055251;28;20265;-83
2022/04/27 07:13:45;;;;;;;7.70;7.00;;;;;;;7.88;100.00;96551.78;5043303;28;20222;-83
2022/04/27 07:16:12;;;;;;;8.93;6.13;;;;;;;7.86;100.00;96559.22;5048511;28;20213;-83
2022/04/27 07:18:40;;;;;;;6.87;5.70;;;;;;;7.87;100.00;96559.00;5056216;28;20205;-83
2022/04/27 07:21:08;;;;;;;6.43;5.33;;;;;;;7.92;100.00;96553.81;5044405;28;20281;-83
2022/04/27 07:23:36;;;;;;;7.63;5.53;;;;;;;8.01;100.00;96554.44;5061452;28;20283;-83
2022/04/27 07:26:03;;;;;;;6.50;4.83;;;;;;;7.99;100.00;96560.00;5045807;28;20194;-84
2022/04/27 07:28:31;;;;;;;6.97;4.90;;;;;;;7.96;100.00;96556.94;5046474;28;20206;-84
2022/04/27 07:30:58;;;;;;;9.83;4.33;;;;;;;7.96;100.00;96562.31;5034756;28;20494;-83
2022/04/27 07:33:25;;;;;;;5.90;4.20;;;;;;;8.22;100.00;96562.25;5048819;28;20233;-83
2022/04/27 07:35:52;;;;;;;3.93;3.47;;;;;;;8.62;100.00;96551.41;5043460;28;20260;-83
2022/04/27 07:38:20;;;;;;;6.60;3.67;;;;;;;8.95;100.00;96549.38;5062313;28;20205;-83
2022/04/27 07:40:47;;;;;;;3.83;3.10;;;;;;;9.37;100.00;96560.53;5056725;28;20207;-83
2022/04/27 07:43:18;;;;;;;5.17;3.57;;;;;;;9.72;100.00;96559.03;5036614;28;20253;-83
2022/04/27 07:45:45;;;;;;;3.83;3.10;;;;;;;10.04;100.00;96565.19;5045154;28;20205;-83
2022/04/27 07:48:12;;;;;;;3.23;2.90;;;;;;;10.29;100.00;96567.09;5044724;28;20213;-84
2022/04/27 07:50:40;;;;;;;3.37;2.80;;;;;;;10.42;100.00;96556.16;5052722;28;20332;-84
2022/04/27 07:53:07;;;;;;;3.63;3.07;;;;;;;10.66;100.00;96554.41;5041778;28;20226;-83
2022/04/27 07:55:36;;;;;;;4.77;2.60;;;;;;;10.77;100.00;96553.69;5044908;28;20221;-84
2022/04/27 07:58:03;;;;;;;4.77;3.80;;;;;;;11.13;100.00;96558.22;5038913;28;20211;-84
2022/04/27 08:00:30;;;;;;;3.67;3.27;;;;;;;11.59;100.00;96568.34;5056682;28;20221;-84
2022/04/27 08:02:58;;;;;;;5.63;4.90;;;;;;;12.02;100.00;96563.50;5039089;28;20325;-84
2022/04/27 08:05:26;;;;;;;7.73;5.60;;;;;;;12.30;100.00;96579.06;5060334;28;20329;-84
2022/04/27 08:07:53;;;;;;;7.80;5.30;;;;;;;12.56;100.00;96569.66;5060610;28;20205;-84
2022/04/27 08:10:21;;;;;;;8.23;5.00;;;;;;;12.79;100.00;96566.91;5047817;28;20214;-83
2022/04/27 08:12:50;;;;;;;5.20;4.70;;;;;;;13.02;99.77;96570.59;5057050;28;20297;-83
2022/04/27 08:15:20;;;;;;;10.40;5.07;;;;;;;13.15;100.00;96575.78;5048214;28;20220;-84
2022/04/27 08:17:54;;;;;;;7.33;4.70;;;;;;;13.40;99.56;96576.28;5062157;28;20292;-83
2022/04/27 08:23:08;;;;;;;6.10;4.97;;;;;;;13.57;97.04;96574.44;5042002;28;20217;-84
2022/04/27 08:25:36;;;;;;;5.97;4.57;;;;;;;13.71;95.01;96569.53;5025635;28;20206;-84
2022/04/27 08:28:06;;;;;;;7.23;4.73;;;;;;;13.78;96.18;96564.75;5045589;28;20213;-84
2022/04/27 08:30:35;;;;;;;6.17;4.50;;;;;;;13.94;94.44;96569.41;5056396;28;20236;-83
2022/04/27 08:33:02;;;;;;;9.07;4.90;;;;;;;13.99;92.63;96565.94;5051991;28;20233;-84
2022/04/27 08:35:31;;;;;;;7.40;4.83;;;;;;;14.19;93.68;96577.13;5012346;28;20241;-84
2022/04/27 08:37:58;;;;;;;5.10;4.60;;;;;;;14.26;93.31;96569.63;5026379;28;20202;-84
2022/04/27 08:40:25;;;;;;;5.50;4.90;;;;;;;14.29;89.57;96571.84;5016407;28;20299;-84
2022/04/27 08:42:53;;;;;;;7.90;4.97;;;;;;;14.34;90.33;96569.22;5014162;28;20207;-83
2022/04/27 08:45:22;;;;;;;5.57;4.90;;;;;;;14.29;90.11;96560.97;5044646;28;20273;-84
2022/04/27 08:47:51;;;;;;;6.67;4.67;;;;;;;14.26;87.84;96564.22;5024990;28;20301;-84
2022/04/27 08:50:20;;;;;;;4.73;4.33;;;;;;;14.23;89.03;96567.41;5025367;28;20226;-84
2022/04/27 08:52:47;;;;;;;5.10;4.53;;;;;;;14.37;89.51;96568.69;5023089;28;20248;-84
2022/04/27 08:55:15;;;;;;;6.40;4.47;;;;;;;14.38;89.01;96558.66;5015699;28;20195;-84
2022/04/27 08:57:44;;;;;;;5.63;4.50;;;;;;;14.43;86.92;96564.22;5024708;28;20289;-84
2022/04/27 09:00:14;;;;;;;5.73;4.47;;;;;;;14.35;86.28;96565.44;5039349;28;20210;-84
2022/04/27 09:02:42;;;;;;;7.27;4.47;;;;;;;14.36;87.99;96558.09;5004231;28;20230;-84
2022/04/27 09:05:11;;;;;;;5.10;4.60;;;;;;;14.36;86.99;96558.09;5029091;28;20241;-84
2022/04/27 09:07:40;;;;;;;5.90;4.47;;;;;;;14.45;85.74;96553.94;5021962;28;20195;-84
2022/04/27 09:10:09;;;;;;;6.43;4.53;;;;;;;14.52;86.37;96548.31;5023095;28;20238;-83
2022/04/27 09:12:38;;;;;;;6.03;4.60;;;;;;;14.59;84.71;96548.97;5041214;28;20218;-84
2022/04/27 09:15:08;;;;;;;4.93;4.43;;;;;;;14.80;85.63;96545.41;5028230;28;20253;-84
2022/04/27 09:23:19;;;;;;;6.17;4.80;;;;;;;15.18;85.99;96535.56;5014907;28;20202;-84
2022/04/27 09:25:47;;;;;;;6.07;4.67;;;;;;;15.17;82.27;96533.91;5024096;28;20198;-84
2022/04/27 09:28:14;;;;;;;5.20;4.70;;;;;;;15.20;85.21;96536.97;5023295;28;20203;-84
2022/04/27 09:30:44;;;;;;;5.33;4.63;;;;;;;14.91;85.11;96540.94;5032895;28;20214;-84
2022/04/27 09:33:11;;;;;;;6.43;4.90;;;;;;;15.10;82.43;96523.25;5047383;28;20301;-84
2022/04/27 09:35:40;;;;;;;6.73;5.03;;;;;;;15.27;81.83;96525.88;5054956;28;20213;-84
2022/04/27 09:38:15;;;;;;;7.43;5.13;;;;;;;15.50;82.18;96536.44;5051127;28;20482;-84
2022/04/27 09:40:47;;;;;;;5.37;4.77;;;;;;;15.49;77.42;96524.75;5052012;28;20205;-84
2022/04/27 09:43:15;;;;;;;5.47;4.77;;;;;;;15.60;78.39;96519.44;5062110;28;20222;-84
2022/04/27 09:45:43;;;;;;;9.73;5.23;;;;;;;15.80;78.82;96525.91;5052232;28;20207;-84
2022/04/27 09:48:20;;;;;;;6.73;5.10;;;;;;;15.79;76.86;96520.72;5040845;28;20200;-84
2022/04/27 09:50:50;;;;;;;5.47;4.87;;;;;;;15.88;75.73;96514.53;5045769;28;20205;-84
2022/04/27 09:53:18;;;;;;;6.90;5.20;;;;;;;16.06;77.03;96521.50;5041629;28;20256;-84
2022/04/27 09:55:48;;;;;;;7.27;5.10;;;;;;;16.16;76.04;96518.03;5045655;28;20209;-84
2022/04/27 09:58:16;;;;;;;6.43;5.50;;;;;;;16.05;73.56;96513.56;5041587;28;20266;-84
2022/04/27 10:00:44;;;;;;;7.43;5.27;;;;;;;16.18;74.81;96519.38;5057262;28;20224;-84
2022/04/27 10:03:15;;;;;;;6.70;5.10;;;;;;;16.12;74.93;96515.00;5038163;28;20210;-85
2022/04/27 10:05:43;;;;;;;7.13;5.83;;;;;;;16.11;75.61;96509.81;5046091;28;20225;-85
2022/04/27 10:08:13;;;;;;;7.97;5.80;;;;;;;16.02;76.65;96509.47;5049993;28;20226;-86
2022/04/27 10:10:41;;;;;;;7.43;5.47;;;;;;;16.08;76.85;96513.84;5053932;28;20216;-84
2022/04/27 10:13:13;;;;;;;15.30;5.50;;;;;;;16.17;74.37;96506.84;5045797;28;20221;-85
2022/04/27 10:15:43;;;;;;;8.63;5.30;;;;;;;16.29;72.17;96501.22;5052416;28;20308;-86
2022/04/27 10:18:11;;;;;;;5.87;5.27;;;;;;;16.11;71.73;96504.34;5056685;28;20292;-85
2022/04/27 10:20:39;;;;;;;6.03;4.87;;;;;;;16.13;72.68;96507.66;5052370;28;20196;-86
2022/04/27 10:23:24;;;;;;;7.63;5.60;;;;;;;16.01;72.43;96501.53;5045658;28;20202;-85
2022/04/27 10:26:08;;;;;;;7.37;5.37;;;;;;;16.06;73.17;96498.88;5060638;28;20205;-86
2022/04/27 10:28:38;;;;;;;7.63;5.87;;;;;;;16.03;71.43;96496.66;5055056;28;20209;-86
2022/04/27 10:31:07;;;;;;;5.97;5.40;;;;;;;16.12;70.75;96497.81;5044059;28;20198;-85
2022/04/27 10:33:49;;;;;;;5.93;4.80;;;;;;;16.26;72.40;96501.72;5049241;28;20382;-86
2022/04/27 10:36:37;;;;;;;5.40;4.90;;;;;;;16.46;69.86;96493.69;5063420;28;20202;-83
2022/04/27 10:39:22;;;;;;;6.20;5.30;;;;;;;16.50;70.07;96486.59;5048613;28;20216;-83
2022/04/27 10:41:56;;;;;;;5.70;5.10;;;;;;;16.61;67.28;96490.25;5064544;28;20305;-83
2022/04/27 10:45:02;;;;;;;5.07;4.57;;;;;;;16.77;68.11;96489.25;5046158;28;20293;-84
2022/04/27 10:47:35;;;;;;;7.37;5.47;;;;;;;16.73;69.08;96488.16;5042212;28;20216;-85
2022/04/27 10:50:28;;;;;;;6.87;4.97;;;;;;;16.82;66.77;96486.56;5056560;28;20210;-85
2022/04/27 10:52:57;;;;;;;8.47;5.67;;;;;;;17.09;68.84;96480.94;5049696;28;20289;-85
2022/04/27 10:55:51;;;;;;;6.40;5.13;;;;;;;17.14;67.78;96485.56;5048503;28;20279;-85
2022/04/27 10:58:24;;;;;;;6.77;5.63;;;;;;;17.13;66.43;96483.91;5051746;28;20205;-85
2022/04/27 11:01:25;;;;;;;8.47;5.53;;;;;;;17.22;68.46;96488.59;5051679;28;20205;-85
2022/04/27 11:04:06;;;;;;;5.80;5.20;;;;;;;17.18;65.18;96484.75;5050799;28;20294;-85
2022/04/27 11:07:16;;;;;;;10.17;6.30;;;;;;;17.15;68.74;96493.50;5068054;28;20206;-84
2022/04/27 11:10:15;;;;;;;8.03;6.83;;;;;;;16.94;70.03;96494.50;5048205;28;20217;-84
2022/04/27 11:12:47;;;;;;;9.37;6.37;;;;;;;17.00;69.50;96488.81;5040067;28;20296;-83
2022/04/27 11:15:21;;;;;;;10.30;6.97;;;;;;;17.18;71.04;96478.50;5058313;28;20289;-83
2022/04/27 11:18:01;;;;;;;7.90;7.07;;;;;;;17.26;70.04;96476.06;5036045;28;20358;-83
2022/04/27 11:20:33;;;;;;;7.63;6.60;;;;;;;17.52;68.53;96473.38;5062874;28;20211;-83
2022/04/27 11:23:03;;;;;;;8.40;6.73;;;;;;;17.59;67.56;96479.38;5054397;28;20217;-83
2022/04/27 11:25:31;;;;;;;7.20;6.50;;;;;;;17.66;66.78;96475.34;5046614;28;20232;-83
2022/04/27 11:28:00;;;;;;;9.87;7.53;;;;;;;17.64;68.30;96482.16;5054278;28;20202;-82
2022/04/27 11:30:29;;;;;;;11.33;7.57;;;;;;;17.57;69.82;96482.38;5041365;28;20309;-82
2022/04/27 11:32:57;;;;;;;8.37;7.23;;;;;;;17.56;69.39;96474.47;5045031;28;20324;-83
2022/04/27 11:35:25;;;;;;;8.17;7.23;;;;;;;17.56;68.55;96479.91;5058272;28;20329;-84
2022/04/27 11:37:54;;;;;;;9.83;7.90;;;;;;;17.71;68.32;96482.69;5053832;28;20268;-84
2022/04/27 11:40:25;;;;;;;9.43;7.03;;;;;;;18.03;68.78;96480.50;5038360;28;20205;-84
2022/04/27 11:42:53;;;;;;;9.60;6.67;;;;;;;17.98;66.43;96477.78;5059469;28;20202;-81
2022/04/27 11:45:24;;;;;;;9.23;7.13;;;;;;;18.03;66.54;96485.97;5052049;28;20272;-82
2022/04/27 11:48:01;;;;;;;7.60;6.73;;;;;;;18.00;66.24;96472.06;5045744;28;20210;-83
2022/04/27 11:50:30;;;;;;;16.40;7.23;;;;;;;17.98;63.76;96472.31;5043722;28;20267;-82
2022/04/27 11:53:02;;;;;;;9.70;6.50;;;;;;;17.87;65.26;96465.22;5033018;28;20210;-82
2022/04/27 11:55:31;;;;;;;10.87;6.67;;;;;;;17.94;65.15;96476.72;5066016;28;20225;-82
2022/04/27 11:57:59;;;;;;;7.47;6.60;;;;;;;17.84;63.44;96473.16;5056978;28;20240;-82
2022/04/27 12:00:29;;;;;;;10.27;7.20;;;;;;;17.63;64.29;96464.13;5057038;28;20216;-82
2022/04/27 12:03:03;;;;;;;7.87;6.20;;;;;;;17.70;68.24;96470.94;5039110;28;20209;-82
2022/04/27 12:05:32;;;;;;;9.87;6.63;;;;;;;17.83;67.29;96468.78;5060622;28;20198;-82
2022/04/27 12:08:01;;;;;;;7.70;6.47;;;;;;;18.05;66.33;96463.84;5056778;28;20229;-82
2022/04/27 12:10:30;;;;;;;10.07;7.03;;;;;;;17.84;65.30;96465.78;5045804;28;20217;-82
2022/04/27 12:13:00;;;;;;;7.83;6.30;;;;;;;17.99;66.08;96468.50;5056059;28;20202;-82